createdAt,value
2022-09-24T00:01:42.684Z,99714.97
2022-09-24T00:04:13.265Z,99713.28
2022-09-24T00:06:44.389Z,99713.25
2022-09-24T00:09:12.696Z,99709.81
2022-09-24T00:11:41.243Z,99708.16
2022-09-24T00:14:09.061Z,99694.41
2022-09-24T00:16:37.025Z,99703.88
2022-09-24T00:19:06.043Z,99697.78
2022-09-24T00:21:37.467Z,99690.91
2022-09-24T00:24:08.402Z,99691.78
2022-09-24T00:26:51.158Z,99687.44
2022-09-24T00:29:21.322Z,99675.38
2022-09-24T00:31:50.778Z,99677.06
2022-09-24T00:34:19.256Z,99690.84
2022-09-24T00:36:48.715Z,99684.03
2022-09-24T00:39:17.287Z,99680.53
2022-09-24T00:41:47.841Z,99682.28
2022-09-24T00:44:54.346Z,99670.19
2022-09-24T00:47:34.767Z,99673.56
2022-09-24T00:50:18.860Z,99663.16
2022-09-24T00:52:52.627Z,99664.84
2022-09-24T00:55:22.422Z,99660.50
2022-09-24T00:57:53.064Z,99669.00
2022-09-24T01:00:21.980Z,99668.97
2022-09-24T01:02:53.269Z,99663.81
2022-09-24T01:05:21.175Z,99666.34
2022-09-24T01:07:50.227Z,99664.63
2022-09-24T01:10:36.068Z,99656.00
2022-09-24T01:13:14.967Z,99656.88
2022-09-24T01:15:49.867Z,99645.59
2022-09-24T01:18:28.195Z,99642.19
2022-09-24T01:21:28.485Z,99642.19
2022-09-24T01:24:22.910Z,99640.31
2022-09-24T01:26:58.794Z,99639.38
2022-09-24T01:29:52.381Z,99645.34
2022-09-24T01:32:31.632Z,99636.72
2022-09-24T01:35:03.380Z,99638.41
2022-09-24T01:37:35.250Z,99638.34
2022-09-24T01:40:05.704Z,99632.31
2022-09-24T01:42:34.987Z,99621.22
2022-09-24T01:45:06.417Z,99621.22
2022-09-24T01:47:39.614Z,99616.06
2022-09-24T01:50:08.918Z,99612.56
2022-09-24T01:52:43.596Z,99609.13
2022-09-24T01:55:15.706Z,99612.56
2022-09-24T01:57:48.468Z,99604.84
2022-09-24T02:00:20.269Z,99603.97
2022-09-24T02:02:52.543Z,99602.25
2022-09-24T02:05:25.200Z,99597.97
2022-09-24T02:07:59.173Z,99603.97
2022-09-24T02:10:32.606Z,99603.09
2022-09-24T02:13:06.483Z,99607.41
2022-09-24T02:15:41.254Z,99605.66
2022-09-24T02:18:12.686Z,99608.19
2022-09-24T02:20:44.260Z,99600.44
2022-09-24T02:23:15.105Z,99594.44
2022-09-24T02:25:46.985Z,99590.13
2022-09-24T02:28:14.781Z,99587.56
2022-09-24T02:30:50.205Z,99590.16
2022-09-24T02:33:37.241Z,99591.03
2022-09-24T02:36:05.583Z,99590.25
2022-09-24T02:38:33.267Z,99595.44
2022-09-24T02:41:01.324Z,99597.19
2022-09-24T02:43:29.017Z,99596.25
2022-09-24T02:45:58.044Z,99603.09
2022-09-24T02:48:25.735Z,99602.19
2022-09-24T02:50:53.802Z,99600.44
2022-09-24T02:53:21.527Z,99601.22
2022-09-24T02:55:50.620Z,99602.88
2022-09-24T02:58:18.286Z,99601.22
2022-09-24T03:00:46.001Z,99590.00
2022-09-24T03:03:15.037Z,99596.00
2022-09-24T03:05:42.888Z,99590.84
2022-09-24T03:08:10.574Z,99591.78
2022-09-24T03:10:38.213Z,99583.97
2022-09-24T03:13:05.902Z,99582.34
2022-09-24T03:15:33.718Z,99574.59
2022-09-24T03:18:01.462Z,99573.81
2022-09-24T03:20:30.917Z,99580.63
2022-09-24T03:22:58.659Z,99576.38
2022-09-24T03:25:26.845Z,99576.38
2022-09-24T03:27:54.519Z,99577.19
2022-09-24T03:30:39.586Z,99577.97
2022-09-24T03:33:07.581Z,99575.38
2022-09-24T03:35:36.603Z,99584.00
2022-09-24T03:40:46.241Z,99588.31
2022-09-24T03:43:14.030Z,99587.34
2022-09-24T03:45:41.731Z,99586.47
2022-09-24T03:48:09.575Z,99579.50
2022-09-24T03:50:38.987Z,99589.72
2022-09-24T03:53:06.770Z,99589.72
2022-09-24T03:55:34.436Z,99588.06
2022-09-24T03:58:02.320Z,99573.47
2022-09-24T04:00:30.046Z,99580.38
2022-09-24T04:02:57.789Z,99573.56
2022-09-24T04:05:25.742Z,99576.16
2022-09-24T04:07:54.774Z,99584.03
2022-09-24T04:10:22.937Z,99577.16
2022-09-24T04:12:50.712Z,99573.75
2022-09-24T04:15:18.804Z,99570.34
2022-09-24T04:17:50.877Z,99561.78
2022-09-24T04:20:19.801Z,99559.13
2022-09-24T04:22:47.590Z,99573.66
2022-09-24T04:25:17.214Z,99570.16
2022-09-24T04:27:44.933Z,99566.72
2022-09-24T04:30:14.114Z,99567.66
2022-09-24T04:32:42.640Z,99561.66
2022-09-24T04:35:11.483Z,99568.53
2022-09-24T04:37:39.342Z,99563.38
2022-09-24T04:40:12.525Z,99569.38
2022-09-24T04:42:42.112Z,99559.91
2022-09-24T04:45:11.858Z,99564.19
2022-09-24T04:47:41.904Z,99564.19
2022-09-24T04:50:11.499Z,99568.50
2022-09-24T04:52:39.879Z,99568.53
2022-09-24T04:55:08.249Z,99565.97
2022-09-24T04:57:36.452Z,99569.38
2022-09-24T05:00:07.714Z,99572.03
2022-09-24T05:02:35.564Z,99564.28
2022-09-24T05:05:03.174Z,99570.31
2022-09-24T05:07:30.697Z,99567.72
2022-09-24T05:09:58.296Z,99568.59
2022-09-24T05:12:26.070Z,99569.34
2022-09-24T05:14:53.667Z,99571.94
2022-09-24T05:17:22.628Z,99571.09
2022-09-24T05:19:50.157Z,99569.34
2022-09-24T05:22:17.730Z,99565.88
2022-09-24T05:24:45.330Z,99567.59
2022-09-24T05:27:11.992Z,99567.66
2022-09-24T05:29:40.502Z,99569.31
2022-09-24T05:32:09.589Z,99581.34
2022-09-24T05:34:38.574Z,99570.16
2022-09-24T05:37:06.140Z,99578.75
2022-09-24T05:39:34.439Z,99575.28
2022-09-24T05:42:03.657Z,99576.22
2022-09-24T05:44:31.500Z,99583.13
2022-09-24T05:46:59.743Z,99585.00
2022-09-24T05:49:27.463Z,99585.06
2022-09-24T05:51:56.820Z,99590.31
2022-09-24T05:54:24.573Z,99593.84
2022-09-24T05:56:52.117Z,99585.25
2022-09-24T05:59:19.834Z,99591.31
2022-09-24T06:01:48.103Z,99584.44
2022-09-24T06:04:16.056Z,99589.56
2022-09-24T06:06:43.890Z,99593.06
2022-09-24T06:09:13.607Z,99592.25
2022-09-24T06:11:42.060Z,99594.91
2022-09-24T06:14:09.812Z,99585.56
2022-09-24T06:16:37.768Z,99596.84
2022-09-24T06:19:05.621Z,99599.47
2022-09-24T06:21:33.485Z,99598.66
2022-09-24T06:24:01.331Z,99599.59
2022-09-24T06:26:30.992Z,99601.41
2022-09-24T06:29:04.405Z,99600.53
2022-09-24T06:31:32.886Z,99599.78
2022-09-24T06:34:02.567Z,99602.44
2022-09-24T06:36:30.194Z,99602.50
2022-09-24T06:38:58.558Z,99609.56
2022-09-24T06:41:26.260Z,99615.72
2022-09-24T06:43:56.490Z,99611.50
2022-09-24T06:46:25.780Z,99611.56
2022-09-24T06:48:54.797Z,99608.19
2022-09-24T06:51:22.676Z,99617.75
2022-09-24T06:53:52.401Z,99610.06
2022-09-24T06:56:20.091Z,99619.63
2022-09-24T06:58:47.862Z,99616.19
2022-09-24T07:01:16.987Z,99610.25
2022-09-24T07:03:44.790Z,99609.47
2022-09-24T07:06:12.398Z,99604.34
2022-09-24T07:08:40.157Z,99604.34
2022-09-24T07:11:08.922Z,99601.00
2022-09-24T07:13:36.705Z,99602.75
2022-09-24T07:16:04.459Z,99613.97
2022-09-24T07:18:33.587Z,99609.75
2022-09-24T07:21:01.269Z,99626.13
2022-09-24T07:23:28.931Z,99630.56
2022-09-24T07:25:57.704Z,99628.88
2022-09-24T07:28:25.525Z,99621.19
2022-09-24T07:30:58.210Z,99629.03
2022-09-24T07:33:25.968Z,99631.72
2022-09-24T07:35:55.065Z,99633.44
2022-09-24T07:38:23.164Z,99630.91
2022-09-24T07:40:51.010Z,99644.72
2022-09-24T07:43:18.764Z,99638.66
2022-09-24T07:45:46.622Z,99629.25
2022-09-24T07:48:15.659Z,99637.00
2022-09-24T07:50:43.821Z,99643.03
2022-09-24T07:53:13.826Z,99645.66
2022-09-24T07:55:41.915Z,99646.47
2022-09-24T07:58:12.672Z,99641.38
2022-09-24T08:00:40.422Z,99641.44
2022-09-24T08:03:08.367Z,99648.38
2022-09-24T08:05:36.097Z,99649.25
2022-09-24T08:08:03.809Z,99647.56
2022-09-24T08:10:32.932Z,99641.50
2022-09-24T08:13:02.679Z,99643.25
2022-09-24T08:15:30.463Z,99652.72
2022-09-24T08:18:01.987Z,99651.91
2022-09-24T08:20:29.762Z,99651.91
2022-09-24T08:23:02.136Z,99643.25
2022-09-24T08:25:31.268Z,99649.31
2022-09-24T08:28:04.039Z,99650.16
2022-09-24T08:30:31.924Z,99646.72
2022-09-24T08:32:59.621Z,99644.13
2022-09-24T08:35:27.718Z,99637.19
2022-09-24T08:37:55.761Z,99636.34
2022-09-24T08:40:27.125Z,99640.78
2022-09-24T08:43:07.478Z,99646.03
2022-09-24T08:46:03.019Z,99640.03
2022-09-24T08:48:34.326Z,99639.22
2022-09-24T08:51:06.621Z,99642.69
2022-09-24T08:53:45.896Z,99644.38
2022-09-24T08:56:24.875Z,99641.81
2022-09-24T08:58:58.196Z,99643.53
2022-09-24T09:01:37.019Z,99647.03
2022-09-24T09:04:19.898Z,99655.66
2022-09-24T09:06:57.024Z,99648.75
2022-09-24T09:09:30.034Z,99650.50
2022-09-24T09:12:02.013Z,99658.28
2022-09-24T09:14:42.247Z,99668.66
2022-09-24T09:17:21.784Z,99662.63
2022-09-24T09:19:56.109Z,99672.13
2022-09-24T09:22:29.099Z,99669.53
2022-09-24T09:25:04.022Z,99666.06
2022-09-24T09:27:32.982Z,99672.13
2022-09-24T09:30:09.257Z,99670.38
2022-09-24T09:32:58.623Z,99663.44
2022-09-24T09:35:34.122Z,99663.41
2022-09-24T09:38:10.671Z,99659.91
2022-09-24T09:40:46.243Z,99656.41
2022-09-24T09:43:15.505Z,99664.16
2022-09-24T09:45:49.336Z,99669.34
2022-09-24T09:48:21.407Z,99665.88
2022-09-24T09:50:50.453Z,99662.41
2022-09-24T09:53:23.113Z,99663.25
2022-09-24T09:55:56.450Z,99661.50
2022-09-24T09:58:25.806Z,99665.81
2022-09-24T10:00:54.260Z,99664.97
2022-09-24T10:03:25.848Z,99663.22
2022-09-24T10:05:57.206Z,99653.66
2022-09-24T10:08:26.176Z,99648.44
2022-09-24T10:10:56.201Z,99645.88
2022-09-24T10:13:24.333Z,99635.47
2022-09-24T10:15:53.664Z,99641.53
2022-09-24T10:18:31.111Z,99642.31
2022-09-24T10:21:02.522Z,99648.41
2022-09-24T10:23:36.705Z,99646.69
2022-09-24T10:26:06.072Z,99646.69
2022-09-24T10:28:52.544Z,99654.44
2022-09-24T10:31:23.618Z,99658.78
2022-09-24T10:33:55.781Z,99654.44
2022-09-24T10:36:25.258Z,99655.31
2022-09-24T10:39:03.543Z,99654.44
2022-09-24T10:41:32.734Z,99651.81
2022-09-24T10:44:05.366Z,99650.84
2022-09-24T10:46:52.102Z,99645.53
2022-09-24T10:49:34.945Z,99648.00
2022-09-24T10:52:10.100Z,99642.63
2022-09-24T10:54:51.321Z,99639.78
2022-09-24T10:57:29.677Z,99635.13
2022-09-24T11:00:05.420Z,99638.59
2022-09-24T11:03:09.574Z,99632.97
2022-09-24T11:05:43.239Z,99639.59
2022-09-24T11:08:25.480Z,99634.97
2022-09-24T11:11:16.148Z,99625.94
2022-09-24T11:13:55.083Z,99625.91
2022-09-24T11:16:49.721Z,99631.94
2022-09-24T11:19:34.425Z,99626.44
2022-09-24T11:22:12.468Z,99617.34
2022-09-24T11:24:54.972Z,99626.44
2022-09-24T11:27:42.204Z,99611.25
2022-09-24T11:30:13.567Z,99610.00
2022-09-24T11:33:01.223Z,99603.72
2022-09-24T11:35:42.416Z,99604.06
2022-09-24T11:38:17.942Z,99610.44
2022-09-24T11:41:09.656Z,99599.34
2022-09-24T11:44:00.814Z,99601.44
2022-09-24T11:46:45.086Z,99598.81
2022-09-24T11:49:40.920Z,99594.16
2022-09-24T11:52:15.253Z,99597.00
2022-09-24T11:54:51.861Z,99598.22
2022-09-24T11:57:25.058Z,99587.56
2022-09-24T12:00:04.738Z,99588.09
2022-09-24T12:02:36.335Z,99590.66
2022-09-24T12:05:08.129Z,99587.75
2022-09-24T12:07:43.747Z,99588.97
2022-09-24T12:10:29.640Z,99593.03
2022-09-24T12:13:05.714Z,99581.19
2022-09-24T12:15:44.172Z,99579.31
2022-09-24T12:18:17.525Z,99592.22
2022-09-24T12:20:49.619Z,99582.38
2022-09-24T12:23:22.553Z,99580.84
2022-09-24T12:25:53.577Z,99578.84
2022-09-24T12:28:40.145Z,99580.22
2022-09-24T12:31:33.187Z,99574.59
2022-09-24T12:34:08.004Z,99571.34
2022-09-24T12:36:57.114Z,99573.22
2022-09-24T12:39:29.217Z,99561.81
2022-09-24T12:42:03.029Z,99570.72
2022-09-24T12:44:38.631Z,99561.66
2022-09-24T12:47:16.243Z,99562.69
2022-09-24T12:49:51.335Z,99561.38
2022-09-24T12:52:24.848Z,99561.06
2022-09-24T12:54:59.040Z,99560.63
2022-09-24T12:57:33.668Z,99555.09
2022-09-24T13:00:03.069Z,99550.25
2022-09-24T13:02:43.985Z,99545.16
2022-09-24T13:05:28.200Z,99550.69
2022-09-24T13:07:59.207Z,99552.94
2022-09-24T13:10:29.834Z,99545.25
2022-09-24T13:13:00.797Z,99556.16
2022-09-24T13:15:35.110Z,99548.25
2022-09-24T13:18:19.270Z,99548.78
2022-09-24T13:21:00.117Z,99537.44
2022-09-24T13:23:35.310Z,99545.09
2022-09-24T13:26:05.398Z,99546.00
2022-09-24T13:28:51.266Z,99539.56
2022-09-24T13:31:27.245Z,99538.50
2022-09-24T13:33:58.220Z,99534.16
2022-09-24T13:36:34.570Z,99538.56
2022-09-24T13:39:07.476Z,99530.97
2022-09-24T13:41:45.967Z,99531.16
2022-09-24T13:44:21.602Z,99530.81
2022-09-24T13:46:55.030Z,99534.03
2022-09-24T13:49:24.753Z,99530.63
2022-09-24T13:52:00.872Z,99526.25
2022-09-24T13:54:34.845Z,99524.09
2022-09-24T13:57:13.053Z,99521.22
2022-09-24T13:59:42.306Z,99516.72
2022-09-24T14:02:25.586Z,99521.41
2022-09-24T14:04:58.530Z,99522.63
2022-09-24T14:07:28.519Z,99517.94
2022-09-24T14:10:03.822Z,99512.06
2022-09-24T14:12:31.719Z,99513.19
2022-09-24T14:15:00.997Z,99515.28
2022-09-24T14:17:28.809Z,99512.06
2022-09-24T14:19:57.810Z,99516.19
2022-09-24T14:22:31.315Z,99508.28
2022-09-24T14:25:04.160Z,99508.59
2022-09-24T14:27:33.301Z,99507.41
2022-09-24T14:30:05.118Z,99518.72
2022-09-24T14:32:35.717Z,99514.53
2022-09-24T14:35:08.786Z,99505.28
2022-09-24T14:37:39.686Z,99512.56
2022-09-24T14:40:13.638Z,99512.94
2022-09-24T14:42:43.960Z,99508.97
2022-09-24T14:45:20.767Z,99505.53
2022-09-24T14:47:48.837Z,99499.78
2022-09-24T14:50:35.394Z,99506.72
2022-09-24T14:53:12.413Z,99495.94
2022-09-24T14:55:41.628Z,99495.31
2022-09-24T14:58:27.163Z,99490.69
2022-09-24T15:00:58.235Z,99491.84
2022-09-24T15:03:33.365Z,99491.84
2022-09-24T15:06:14.606Z,99486.56
2022-09-24T15:08:43.198Z,99484.25
2022-09-24T15:11:17.872Z,99488.06
2022-09-24T15:13:45.832Z,99496.06
2022-09-24T15:16:22.504Z,99489.41
2022-09-24T15:18:59.877Z,99487.66
2022-09-24T15:21:27.863Z,99493.53
2022-09-24T15:23:56.966Z,99482.16
2022-09-24T15:26:29.302Z,99485.75
2022-09-24T15:28:58.169Z,99488.63
2022-09-24T15:31:27.436Z,99484.38
2022-09-24T15:33:56.005Z,99489.97
2022-09-24T15:36:24.344Z,99488.66
2022-09-24T15:38:53.339Z,99486.69
2022-09-24T15:41:21.117Z,99485.06
2022-09-24T15:43:48.866Z,99483.47
2022-09-24T15:46:17.071Z,99477.56
2022-09-24T15:48:46.715Z,99482.28
2022-09-24T15:51:18.327Z,99472.78
2022-09-24T15:53:46.234Z,99473.94
2022-09-24T15:56:15.166Z,99482.78
2022-09-24T15:58:42.917Z,99473.41
2022-09-24T16:01:16.717Z,99477.78
2022-09-24T16:03:46.092Z,99472.59
2022-09-24T16:06:14.309Z,99467.50
2022-09-24T16:08:43.703Z,99474.56
2022-09-24T16:11:11.406Z,99474.63
2022-09-24T16:13:39.023Z,99472.22
2022-09-24T16:16:08.223Z,99474.97
2022-09-24T16:18:38.046Z,99469.75
2022-09-24T16:21:08.335Z,99478.50
2022-09-24T16:23:36.100Z,99478.50
2022-09-24T16:26:03.794Z,99481.97
2022-09-24T16:28:31.962Z,99477.59
2022-09-24T16:30:59.724Z,99478.47
2022-09-24T16:33:27.484Z,99483.78
2022-09-24T16:35:55.243Z,99479.47
2022-09-24T16:38:24.349Z,99472.63
2022-09-24T16:41:00.712Z,99476.16
2022-09-24T16:43:28.853Z,99479.59
2022-09-24T16:46:01.375Z,99485.63
2022-09-24T16:48:29.090Z,99493.50
2022-09-24T16:51:03.237Z,99495.41
2022-09-24T16:53:34.236Z,99498.06
2022-09-24T16:56:06.650Z,99501.56
2022-09-24T16:58:34.466Z,99504.25
2022-09-24T17:01:05.285Z,99508.66
2022-09-24T17:03:33.344Z,99506.97
2022-09-24T17:06:01.209Z,99514.06
2022-09-24T17:08:49.319Z,99516.75
2022-09-24T17:11:17.972Z,99515.06
2022-09-24T17:13:47.406Z,99514.28
2022-09-24T17:16:15.672Z,99511.75
2022-09-24T17:18:43.417Z,99510.94
2022-09-24T17:21:13.388Z,99509.31
2022-09-24T17:23:41.462Z,99513.72
2022-09-24T17:26:11.489Z,99512.94
2022-09-24T17:28:42.482Z,99515.59
2022-09-24T17:31:12.633Z,99516.50
2022-09-24T17:33:43.755Z,99514.88
2022-09-24T17:36:14.456Z,99521.84
2022-09-24T17:38:42.810Z,99531.41
2022-09-24T17:41:12.422Z,99532.31
2022-09-24T17:43:42.878Z,99534.03
2022-09-24T17:46:14.458Z,99532.31
2022-09-24T17:48:45.561Z,99525.41
2022-09-24T17:51:16.216Z,99532.34
2022-09-24T17:53:44.098Z,99535.81
2022-09-24T17:56:14.917Z,99542.94
2022-09-24T17:58:47.850Z,99536.09
2022-09-24T18:01:18.963Z,99532.66
2022-09-24T18:03:48.737Z,99539.59
2022-09-24T18:06:16.453Z,99548.25
2022-09-24T18:08:45.955Z,99555.19
2022-09-24T18:11:15.858Z,99561.28
2022-09-24T18:13:45.518Z,99567.34
2022-09-24T18:16:14.913Z,99572.56
2022-09-24T18:18:44.403Z,99574.31
2022-09-24T18:21:14.408Z,99576.03
2022-09-24T18:23:42.570Z,99572.56
2022-09-24T18:26:11.888Z,99577.78
2022-09-24T18:28:40.536Z,99582.16
2022-09-24T18:31:11.387Z,99583.91
2022-09-24T18:33:40.986Z,99593.38
2022-09-24T18:36:10.859Z,99591.69
2022-09-24T18:38:38.820Z,99590.78
2022-09-24T18:41:09.756Z,99591.69
2022-09-24T18:43:37.682Z,99600.31
2022-09-24T18:46:06.429Z,99608.97
2022-09-24T18:48:36.076Z,99605.50
2022-09-24T18:51:05.062Z,99595.13
2022-09-24T18:53:33.095Z,99604.63
2022-09-24T18:56:05.432Z,99608.97
2022-09-24T18:58:33.038Z,99612.44
2022-09-24T19:01:01.907Z,99617.59
2022-09-24T19:03:30.471Z,99613.31
2022-09-24T19:06:02.098Z,99614.19
2022-09-24T19:08:32.137Z,99623.66
2022-09-24T19:11:04.379Z,99615.03
2022-09-24T19:13:32.514Z,99622.81
2022-09-24T19:16:05.586Z,99609.84
2022-09-24T19:18:34.254Z,99602.06
2022-09-24T19:21:06.283Z,99600.34
2022-09-24T19:23:37.470Z,99592.56
2022-09-24T19:26:06.624Z,99599.47
2022-09-24T19:28:34.931Z,99600.31
2022-09-24T19:31:03.081Z,99602.06
2022-09-24T19:33:30.821Z,99601.16
2022-09-24T19:36:01.750Z,99597.75
2022-09-24T19:38:32.394Z,99602.03
2022-09-24T19:41:01.572Z,99602.03
2022-09-24T19:43:30.963Z,99602.00
2022-09-24T19:46:00.329Z,99608.03
2022-09-24T19:48:29.810Z,99604.59
2022-09-24T19:51:00.783Z,99608.03
2022-09-24T19:53:31.588Z,99602.88
2022-09-24T19:55:59.615Z,99601.13
2022-09-24T19:58:28.034Z,99606.31
2022-09-24T20:00:56.015Z,99607.16
2022-09-24T20:03:25.949Z,99600.25
2022-09-24T20:05:53.794Z,99595.09
2022-09-24T20:08:23.905Z,99593.34
2022-09-24T20:10:52.989Z,99595.94
2022-09-24T20:13:20.796Z,99598.53
2022-09-24T20:15:48.767Z,99596.78
2022-09-24T20:18:16.500Z,99601.94
2022-09-24T20:20:44.236Z,99604.50
2022-09-24T20:23:12.024Z,99604.50
2022-09-24T20:25:57.750Z,99612.31
2022-09-24T20:28:26.817Z,99613.16
2022-09-24T20:30:54.764Z,99615.72
2022-09-24T20:33:22.546Z,99610.53
2022-09-24T20:35:50.241Z,99609.66
2022-09-24T20:38:18.699Z,99620.00
2022-09-24T20:40:46.465Z,99626.88
2022-09-24T20:43:14.326Z,99629.47
2022-09-24T20:45:43.352Z,99626.03
2022-09-24T20:48:12.074Z,99620.81
2022-09-24T20:50:40.133Z,99624.28
2022-09-24T20:53:08.040Z,99626.00
2022-09-24T20:55:35.897Z,99623.41
2022-09-24T20:58:03.576Z,99622.53
2022-09-24T21:00:35.809Z,99621.66
2022-09-24T21:03:25.548Z,99625.97
2022-09-24T21:05:53.222Z,99626.78
2022-09-24T21:08:20.923Z,99619.00
2022-09-24T21:10:48.656Z,99623.34
2022-09-24T21:13:16.326Z,99624.19
2022-09-24T21:15:44.083Z,99625.94
2022-09-24T21:18:22.678Z,99615.56
2022-09-24T21:20:51.285Z,99625.00
2022-09-24T21:23:19.042Z,99618.13
2022-09-24T21:25:54.347Z,99621.56
2022-09-24T21:28:22.668Z,99621.53
2022-09-24T21:30:57.972Z,99624.09
2022-09-24T21:33:27.110Z,99618.00
2022-09-24T21:35:57.440Z,99610.22
2022-09-24T21:38:25.126Z,99611.91
2022-09-24T21:40:54.435Z,99613.66
2022-09-24T21:43:23.562Z,99610.19
2022-09-24T21:45:52.424Z,99610.19
2022-09-24T21:48:20.316Z,99612.78
2022-09-24T21:50:49.390Z,99612.72
2022-09-24T21:53:17.075Z,99617.03
2022-09-24T21:55:48.367Z,99617.91
2022-09-24T21:58:16.280Z,99619.59
2022-09-24T22:00:43.984Z,99615.28
2022-09-24T22:03:12.310Z,99611.81
2022-09-24T22:05:42.931Z,99610.06
2022-09-24T22:08:12.998Z,99616.97
2022-09-24T22:10:41.699Z,99615.25
2022-09-24T22:13:11.035Z,99616.09
2022-09-24T22:15:38.849Z,99616.09
2022-09-24T22:18:06.685Z,99616.97
2022-09-24T22:20:34.348Z,99620.41
2022-09-24T22:23:02.000Z,99616.97
2022-09-24T22:25:31.290Z,99611.78
2022-09-24T22:27:58.938Z,99611.78
2022-09-24T22:30:26.777Z,99613.53
2022-09-24T22:32:54.657Z,99619.59
2022-09-24T22:35:43.062Z,99629.88
2022-09-24T22:38:11.229Z,99621.19
2022-09-24T22:40:40.507Z,99622.09
2022-09-24T22:43:08.206Z,99616.06
2022-09-24T22:45:35.851Z,99607.41
2022-09-24T22:48:03.583Z,99611.75
2022-09-24T22:50:31.247Z,99615.16
2022-09-24T22:52:58.950Z,99617.75
2022-09-24T22:55:26.657Z,99603.91
2022-09-24T22:57:56.020Z,99608.25
2022-09-24T23:00:23.691Z,99606.47
2022-09-24T23:02:51.448Z,99607.31
2022-09-24T23:05:19.221Z,99606.47
2022-09-24T23:07:46.966Z,99603.03
2022-09-24T23:10:14.689Z,99597.00
2022-09-24T23:12:42.374Z,99603.00
2022-09-24T23:15:11.967Z,99603.84
2022-09-24T23:17:39.741Z,99603.00
2022-09-24T23:20:09.311Z,99606.41
2022-09-24T23:22:36.989Z,99604.66
2022-09-24T23:25:05.395Z,99610.72
2022-09-24T23:27:33.222Z,99611.63
2022-09-24T23:30:01.452Z,99612.53
2022-09-24T23:32:31.263Z,99608.19
2022-09-24T23:34:58.990Z,99603.03
2022-09-24T23:37:26.666Z,99609.06
2022-09-24T23:39:54.339Z,99601.28
2022-09-24T23:42:22.003Z,99603.03
2022-09-24T23:44:49.644Z,99598.75
2022-09-24T23:47:18.053Z,99605.69
2022-09-24T23:49:47.043Z,99601.38
2022-09-24T23:52:14.708Z,99611.72
2022-09-24T23:54:42.956Z,99603.09
2022-09-24T23:57:11.201Z,99603.09
2022-09-24T23:59:39.142Z,99613.44
